sensor_id;sensor_type;location;lat;lon;timestamp;P1;durP1;ratioP1;P2;durP2;ratioP2
48191;SDS011;33982;47.430;18.912;2022-08-03T13:14:32;5.83;;;3.80;;
48191;SDS011;33982;47.430;18.912;2022-08-03T13:17:01;4.90;;;3.60;;
48191;SDS011;33982;47.430;18.912;2022-08-03T13:19:32;7.27;;;3.70;;
48191;SDS011;33982;47.430;18.912;2022-08-03T13:22:16;5.50;;;3.40;;
48191;SDS011;33982;47.430;18.912;2022-08-03T13:24:47;4.53;;;3.40;;
48191;SDS011;33982;47.430;18.912;2022-08-03T13:27:16;4.62;;;3.58;;
48191;SDS011;33982;47.430;18.912;2022-08-03T13:30:04;4.95;;;3.30;;
48191;SDS011;33982;47.430;18.912;2022-08-03T13:32:33;4.70;;;3.10;;
48191;SDS011;33982;47.430;18.912;2022-08-03T13:35:00;4.87;;;3.37;;
48191;SDS011;33982;47.430;18.912;2022-08-03T13:37:31;4.60;;;3.30;;
48191;SDS011;33982;47.430;18.912;2022-08-03T13:40:00;4.50;;;3.33;;
48191;SDS011;33982;47.430;18.912;2022-08-03T13:42:29;4.97;;;3.58;;
48191;SDS011;33982;47.430;18.912;2022-08-03T13:44:58;5.78;;;3.67;;
48191;SDS011;33982;47.430;18.912;2022-08-03T13:47:27;6.45;;;3.47;;
48191;SDS011;33982;47.430;18.912;2022-08-03T13:49:54;6.47;;;4.20;;
48191;SDS011;33982;47.430;18.912;2022-08-03T13:52:30;5.62;;;3.80;;
48191;SDS011;33982;47.430;18.912;2022-08-03T13:54:59;4.60;;;3.60;;
48191;SDS011;33982;47.430;18.912;2022-08-03T13:57:27;5.67;;;3.70;;
48191;SDS011;33982;47.430;18.912;2022-08-03T14:00:15;5.97;;;3.50;;
48191;SDS011;33982;47.430;18.912;2022-08-03T14:02:55;4.95;;;3.53;;
48191;SDS011;33982;47.430;18.912;2022-08-03T14:05:31;5.35;;;3.53;;
48191;SDS011;33982;47.430;18.912;2022-08-03T14:07:59;5.53;;;3.87;;
48191;SDS011;33982;47.430;18.912;2022-08-03T14:10:41;5.50;;;3.72;;
48191;SDS011;33982;47.430;18.912;2022-08-03T14:13:10;6.18;;;3.90;;
48191;SDS011;33982;47.430;18.912;2022-08-03T14:15:44;6.12;;;3.90;;
48191;SDS011;33982;47.430;18.912;2022-08-03T14:18:20;5.50;;;3.80;;
48191;SDS011;33982;47.430;18.912;2022-08-03T14:21:03;6.05;;;3.65;;
48191;SDS011;33982;47.430;18.912;2022-08-03T14:23:33;5.50;;;3.67;;
48191;SDS011;33982;47.430;18.912;2022-08-03T14:26:01;5.47;;;3.50;;
48191;SDS011;33982;47.430;18.912;2022-08-03T14:28:29;5.72;;;3.60;;
48191;SDS011;33982;47.430;18.912;2022-08-03T14:30:57;4.95;;;3.78;;
48191;SDS011;33982;47.430;18.912;2022-08-03T14:33:24;4.90;;;3.70;;
48191;SDS011;33982;47.430;18.912;2022-08-03T14:35:54;5.55;;;3.70;;
48191;SDS011;33982;47.430;18.912;2022-08-03T14:38:22;5.53;;;3.67;;
48191;SDS011;33982;47.430;18.912;2022-08-03T14:40:49;5.20;;;3.80;;
48191;SDS011;33982;47.430;18.912;2022-08-03T14:43:17;4.90;;;3.80;;
48191;SDS011;33982;47.430;18.912;2022-08-03T14:45:48;5.55;;;3.90;;
48191;SDS011;33982;47.430;18.912;2022-08-03T14:48:18;4.90;;;3.70;;
48191;SDS011;33982;47.430;18.912;2022-08-03T14:51:07;5.23;;;3.50;;
48191;SDS011;33982;47.430;18.912;2022-08-03T14:53:35;5.53;;;3.60;;
48191;SDS011;33982;47.430;18.912;2022-08-03T14:56:02;4.75;;;3.53;;
48191;SDS011;33982;47.430;18.912;2022-08-03T14:58:36;6.62;;;3.70;;
48191;SDS011;33982;47.430;18.912;2022-08-03T15:01:03;5.43;;;3.80;;
48191;SDS011;33982;47.430;18.912;2022-08-03T15:03:51;5.72;;;3.72;;
48191;SDS011;33982;47.430;18.912;2022-08-03T15:06:19;4.95;;;3.50;;
48191;SDS011;33982;47.430;18.912;2022-08-03T15:08:46;5.40;;;3.53;;
48191;SDS011;33982;47.430;18.912;2022-08-03T15:11:36;4.80;;;3.60;;
48191;SDS011;33982;47.430;18.912;2022-08-03T15:14:03;4.80;;;3.70;;
48191;SDS011;33982;47.430;18.912;2022-08-03T15:16:36;5.60;;;3.70;;
48191;SDS011;33982;47.430;18.912;2022-08-03T15:19:04;4.62;;;3.50;;
48191;SDS011;33982;47.430;18.912;2022-08-03T15:21:52;8.60;;;3.77;;
48191;SDS011;33982;47.430;18.912;2022-08-03T15:24:20;5.30;;;3.83;;
48191;SDS011;33982;47.430;18.912;2022-08-03T15:26:49;7.40;;;3.90;;
48191;SDS011;33982;47.430;18.912;2022-08-03T15:29:18;7.25;;;3.80;;
48191;SDS011;33982;47.430;18.912;2022-08-03T16:02:35;7.30;;;4.33;;
48191;SDS011;33982;47.430;18.912;2022-08-03T16:05:06;6.12;;;4.20;;
48191;SDS011;33982;47.430;18.912;2022-08-03T16:07:39;5.72;;;4.00;;
48191;SDS011;33982;47.430;18.912;2022-08-03T16:10:38;5.80;;;4.28;;
48191;SDS011;33982;47.430;18.912;2022-08-03T16:13:14;5.80;;;4.10;;
48191;SDS011;33982;47.430;18.912;2022-08-03T16:15:52;6.07;;;4.00;;
48191;SDS011;33982;47.430;18.912;2022-08-03T16:18:24;6.05;;;3.95;;
48191;SDS011;33982;47.430;18.912;2022-08-03T16:20:59;5.20;;;4.00;;
48191;SDS011;33982;47.430;18.912;2022-08-03T16:23:27;5.73;;;4.00;;
48191;SDS011;33982;47.430;18.912;2022-08-03T16:26:02;6.73;;;3.97;;
48191;SDS011;33982;47.430;18.912;2022-08-03T16:28:43;5.85;;;3.85;;
48191;SDS011;33982;47.430;18.912;2022-08-03T16:31:51;5.05;;;3.75;;
48191;SDS011;33982;47.430;18.912;2022-08-03T16:34:30;5.53;;;3.85;;
48191;SDS011;33982;47.430;18.912;2022-08-03T16:37:14;6.17;;;3.80;;
48191;SDS011;33982;47.430;18.912;2022-08-03T16:40:10;5.72;;;3.87;;
48191;SDS011;33982;47.430;18.912;2022-08-03T16:42:50;6.53;;;4.00;;
48191;SDS011;33982;47.430;18.912;2022-08-03T16:45:25;7.00;;;3.90;;
48191;SDS011;33982;47.430;18.912;2022-08-03T16:48:00;7.12;;;4.00;;
48191;SDS011;33982;47.430;18.912;2022-08-03T16:50:43;5.43;;;3.60;;
48191;SDS011;33982;47.430;18.912;2022-08-03T16:53:16;5.43;;;3.72;;
48191;SDS011;33982;47.430;18.912;2022-08-03T16:56:31;7.53;;;3.97;;
48191;SDS011;33982;47.430;18.912;2022-08-03T17:02:26;6.43;;;3.78;;
48191;SDS011;33982;47.430;18.912;2022-08-03T17:04:55;9.95;;;4.87;;
48191;SDS011;33982;47.430;18.912;2022-08-03T17:07:29;6.70;;;4.27;;
48191;SDS011;33982;47.430;18.912;2022-08-03T17:10:06;8.00;;;4.15;;
48191;SDS011;33982;47.430;18.912;2022-08-03T17:12:38;5.72;;;4.00;;
48191;SDS011;33982;47.430;18.912;2022-08-03T17:15:07;6.18;;;4.10;;
48191;SDS011;33982;47.430;18.912;2022-08-03T17:17:41;7.25;;;4.50;;
48191;SDS011;33982;47.430;18.912;2022-08-03T17:20:25;6.80;;;4.30;;
48191;SDS011;33982;47.430;18.912;2022-08-03T17:22:58;7.60;;;4.22;;
48191;SDS011;33982;47.430;18.912;2022-08-03T17:25:46;7.97;;;4.40;;
48191;SDS011;33982;47.430;18.912;2022-08-03T17:28:32;7.82;;;4.43;;
48191;SDS011;33982;47.430;18.912;2022-08-03T17:31:25;6.03;;;4.43;;
48191;SDS011;33982;47.430;18.912;2022-08-03T17:34:16;6.03;;;3.97;;
48191;SDS011;33982;47.430;18.912;2022-08-03T17:39:34;9.18;;;4.00;;
48191;SDS011;33982;47.430;18.912;2022-08-03T17:42:29;6.15;;;4.07;;
48191;SDS011;33982;47.430;18.912;2022-08-03T17:45:04;10.55;;;6.00;;
48191;SDS011;33982;47.430;18.912;2022-08-03T17:47:46;9.00;;;4.78;;
48191;SDS011;33982;47.430;18.912;2022-08-03T17:53:19;9.45;;;6.60;;
48191;SDS011;33982;47.430;18.912;2022-08-03T17:55:59;8.93;;;5.40;;
48191;SDS011;33982;47.430;18.912;2022-08-03T18:05:57;8.55;;;4.32;;
48191;SDS011;33982;47.430;18.912;2022-08-03T18:12:28;8.57;;;4.23;;
48191;SDS011;33982;47.430;18.912;2022-08-03T18:18:50;7.20;;;3.90;;
48191;SDS011;33982;47.430;18.912;2022-08-03T18:21:26;6.12;;;4.30;;
48191;SDS011;33982;47.430;18.912;2022-08-03T18:24:27;6.45;;;4.12;;
48191;SDS011;33982;47.430;18.912;2022-08-03T18:27:04;6.07;;;4.15;;
48191;SDS011;33982;47.430;18.912;2022-08-03T18:29:36;5.82;;;4.30;;
48191;SDS011;33982;47.430;18.912;2022-08-03T18:32:09;7.40;;;4.80;;
48191;SDS011;33982;47.430;18.912;2022-08-03T18:34:43;8.07;;;5.10;;
48191;SDS011;33982;47.430;18.912;2022-08-03T18:37:23;6.28;;;4.53;;
48191;SDS011;33982;47.430;18.912;2022-08-03T18:39:58;7.20;;;4.83;;
48191;SDS011;33982;47.430;18.912;2022-08-03T18:42:28;8.15;;;4.43;;
48191;SDS011;33982;47.430;18.912;2022-08-03T18:45:04;6.22;;;4.50;;
48191;SDS011;33982;47.430;18.912;2022-08-03T18:47:56;7.75;;;4.80;;
48191;SDS011;33982;47.430;18.912;2022-08-03T18:50:42;7.35;;;4.65;;
48191;SDS011;33982;47.430;18.912;2022-08-03T18:53:32;6.03;;;4.68;;
48191;SDS011;33982;47.430;18.912;2022-08-03T18:56:40;7.22;;;4.60;;
48191;SDS011;33982;47.430;18.912;2022-08-03T19:02:10;7.33;;;4.87;;
48191;SDS011;33982;47.430;18.912;2022-08-03T19:05:02;7.37;;;4.45;;
48191;SDS011;33982;47.430;18.912;2022-08-03T19:07:40;7.70;;;5.15;;
48191;SDS011;33982;47.430;18.912;2022-08-03T19:10:31;7.07;;;5.05;;
48191;SDS011;33982;47.430;18.912;2022-08-03T19:13:07;6.62;;;4.70;;
48191;SDS011;33982;47.430;18.912;2022-08-03T19:16:06;7.53;;;4.80;;
48191;SDS011;33982;47.430;18.912;2022-08-03T19:18:49;7.15;;;4.60;;
48191;SDS011;33982;47.430;18.912;2022-08-03T19:21:32;6.43;;;4.90;;
48191;SDS011;33982;47.430;18.912;2022-08-03T19:24:09;7.53;;;4.40;;
48191;SDS011;33982;47.430;18.912;2022-08-03T19:26:43;7.95;;;4.80;;
48191;SDS011;33982;47.430;18.912;2022-08-03T19:29:19;7.20;;;4.93;;
48191;SDS011;33982;47.430;18.912;2022-08-03T19:32:14;6.67;;;4.50;;
48191;SDS011;33982;47.430;18.912;2022-08-03T19:34:50;7.00;;;4.63;;
48191;SDS011;33982;47.430;18.912;2022-08-03T19:37:23;8.00;;;4.47;;
48191;SDS011;33982;47.430;18.912;2022-08-03T19:40:08;8.87;;;5.07;;
48191;SDS011;33982;47.430;18.912;2022-08-03T19:42:44;8.85;;;4.60;;
48191;SDS011;33982;47.430;18.912;2022-08-03T19:45:21;8.75;;;4.93;;
48191;SDS011;33982;47.430;18.912;2022-08-03T19:48:30;8.25;;;4.60;;
48191;SDS011;33982;47.430;18.912;2022-08-03T19:51:05;6.32;;;4.30;;
48191;SDS011;33982;47.430;18.912;2022-08-03T19:53:58;7.45;;;4.60;;
48191;SDS011;33982;47.430;18.912;2022-08-03T19:56:35;8.20;;;4.77;;
48191;SDS011;33982;47.430;18.912;2022-08-03T19:59:14;6.33;;;4.70;;
48191;SDS011;33982;47.430;18.912;2022-08-03T20:01:52;7.43;;;4.45;;
48191;SDS011;33982;47.430;18.912;2022-08-03T20:04:26;6.90;;;4.62;;
48191;SDS011;33982;47.430;18.912;2022-08-03T20:07:03;6.07;;;4.43;;
48191;SDS011;33982;47.430;18.912;2022-08-03T20:09:36;6.37;;;4.50;;
48191;SDS011;33982;47.430;18.912;2022-08-03T20:12:25;8.15;;;4.85;;
48191;SDS011;33982;47.430;18.912;2022-08-03T20:15:06;7.27;;;5.10;;
48191;SDS011;33982;47.430;18.912;2022-08-03T20:18:01;6.60;;;4.80;;
48191;SDS011;33982;47.430;18.912;2022-08-03T20:20:44;7.40;;;4.90;;
48191;SDS011;33982;47.430;18.912;2022-08-03T20:23:33;7.12;;;4.80;;
48191;SDS011;33982;47.430;18.912;2022-08-03T20:26:35;6.90;;;5.00;;
48191;SDS011;33982;47.430;18.912;2022-08-03T20:29:05;8.73;;;4.95;;
48191;SDS011;33982;47.430;18.912;2022-08-03T20:31:43;6.37;;;4.57;;
48191;SDS011;33982;47.430;18.912;2022-08-03T20:34:16;6.47;;;4.67;;
48191;SDS011;33982;47.430;18.912;2022-08-03T20:36:51;7.10;;;5.10;;
48191;SDS011;33982;47.430;18.912;2022-08-03T20:39:20;7.40;;;5.30;;
48191;SDS011;33982;47.430;18.912;2022-08-03T20:41:50;7.05;;;5.35;;
48191;SDS011;33982;47.430;18.912;2022-08-03T20:44:31;7.72;;;5.95;;
48191;SDS011;33982;47.430;18.912;2022-08-03T20:47:01;8.60;;;5.70;;
48191;SDS011;33982;47.430;18.912;2022-08-03T20:50:00;7.18;;;5.35;;
48191;SDS011;33982;47.430;18.912;2022-08-03T20:52:36;7.90;;;5.47;;
48191;SDS011;33982;47.430;18.912;2022-08-03T20:55:18;7.12;;;5.30;;
48191;SDS011;33982;47.430;18.912;2022-08-03T20:58:18;7.20;;;5.07;;
48191;SDS011;33982;47.430;18.912;2022-08-03T21:00:50;6.45;;;4.70;;
48191;SDS011;33982;47.430;18.912;2022-08-03T21:03:19;6.32;;;4.20;;
48191;SDS011;33982;47.430;18.912;2022-08-03T21:05:47;7.20;;;4.55;;
48191;SDS011;33982;47.430;18.912;2022-08-03T21:08:20;6.72;;;4.50;;
48191;SDS011;33982;47.430;18.912;2022-08-03T21:10:48;6.60;;;4.40;;
48191;SDS011;33982;47.430;18.912;2022-08-03T21:13:29;8.70;;;4.40;;
48191;SDS011;33982;47.430;18.912;2022-08-03T21:16:08;9.63;;;4.77;;
48191;SDS011;33982;47.430;18.912;2022-08-03T21:18:45;7.82;;;5.05;;
48191;SDS011;33982;47.430;18.912;2022-08-03T21:21:21;6.10;;;4.20;;
48191;SDS011;33982;47.430;18.912;2022-08-03T21:23:51;7.78;;;4.20;;
48191;SDS011;33982;47.430;18.912;2022-08-03T21:26:23;5.75;;;4.10;;
48191;SDS011;33982;47.430;18.912;2022-08-03T21:28:53;5.47;;;4.07;;
48191;SDS011;33982;47.430;18.912;2022-08-03T21:31:35;5.37;;;3.83;;
48191;SDS011;33982;47.430;18.912;2022-08-03T21:34:06;5.95;;;3.75;;
48191;SDS011;33982;47.430;18.912;2022-08-03T21:36:35;6.72;;;3.92;;
48191;SDS011;33982;47.430;18.912;2022-08-03T21:39:09;5.43;;;3.43;;
48191;SDS011;33982;47.430;18.912;2022-08-03T21:41:49;5.78;;;3.65;;
48191;SDS011;33982;47.430;18.912;2022-08-03T21:44:21;6.03;;;3.40;;
48191;SDS011;33982;47.430;18.912;2022-08-03T21:46:55;4.65;;;3.20;;
48191;SDS011;33982;47.430;18.912;2022-08-03T21:49:24;4.97;;;3.40;;
48191;SDS011;33982;47.430;18.912;2022-08-03T21:52:16;5.05;;;3.35;;
48191;SDS011;33982;47.430;18.912;2022-08-03T21:54:47;4.82;;;3.17;;
48191;SDS011;33982;47.430;18.912;2022-08-03T21:57:17;5.30;;;3.28;;
48191;SDS011;33982;47.430;18.912;2022-08-03T21:59:51;4.93;;;2.97;;
48191;SDS011;33982;47.430;18.912;2022-08-03T22:02:28;4.78;;;2.95;;
48191;SDS011;33982;47.430;18.912;2022-08-03T22:05:00;5.00;;;3.10;;
48191;SDS011;33982;47.430;18.912;2022-08-03T22:07:32;4.75;;;2.90;;
48191;SDS011;33982;47.430;18.912;2022-08-03T22:10:01;4.72;;;2.90;;
48191;SDS011;33982;47.430;18.912;2022-08-03T22:12:29;4.97;;;2.80;;
48191;SDS011;33982;47.430;18.912;2022-08-03T22:14:58;4.57;;;2.70;;
48191;SDS011;33982;47.430;18.912;2022-08-03T22:17:32;4.65;;;2.70;;
48191;SDS011;33982;47.430;18.912;2022-08-03T22:20:21;4.25;;;2.70;;
48191;SDS011;33982;47.430;18.912;2022-08-03T22:22:51;4.00;;;2.63;;
48191;SDS011;33982;47.430;18.912;2022-08-03T22:25:29;3.97;;;2.67;;
48191;SDS011;33982;47.430;18.912;2022-08-03T22:28:02;4.90;;;3.10;;
48191;SDS011;33982;47.430;18.912;2022-08-03T22:30:37;4.35;;;2.80;;
48191;SDS011;33982;47.430;18.912;2022-08-03T22:33:06;4.67;;;2.70;;
48191;SDS011;33982;47.430;18.912;2022-08-03T22:35:39;5.40;;;2.70;;
48191;SDS011;33982;47.430;18.912;2022-08-03T22:38:15;4.40;;;2.50;;
48191;SDS011;33982;47.430;18.912;2022-08-03T22:40:43;4.10;;;2.60;;
48191;SDS011;33982;47.430;18.912;2022-08-03T22:43:11;3.60;;;2.42;;
48191;SDS011;33982;47.430;18.912;2022-08-03T22:45:38;4.25;;;2.40;;
48191;SDS011;33982;47.430;18.912;2022-08-03T22:48:32;3.55;;;2.33;;
48191;SDS011;33982;47.430;18.912;2022-08-03T22:51:07;4.25;;;2.70;;
48191;SDS011;33982;47.430;18.912;2022-08-03T22:53:35;4.18;;;2.50;;
48191;SDS011;33982;47.430;18.912;2022-08-03T22:56:06;4.30;;;2.50;;
48191;SDS011;33982;47.430;18.912;2022-08-03T22:58:34;3.45;;;2.25;;
48191;SDS011;33982;47.430;18.912;2022-08-03T23:01:08;3.50;;;2.15;;
48191;SDS011;33982;47.430;18.912;2022-08-03T23:03:41;4.23;;;2.40;;
48191;SDS011;33982;47.430;18.912;2022-08-03T23:06:39;4.20;;;2.50;;
48191;SDS011;33982;47.430;18.912;2022-08-03T23:09:10;3.72;;;2.40;;
48191;SDS011;33982;47.430;18.912;2022-08-03T23:11:39;3.95;;;2.28;;
48191;SDS011;33982;47.430;18.912;2022-08-03T23:14:13;3.55;;;2.10;;
48191;SDS011;33982;47.430;18.912;2022-08-03T23:16:43;3.95;;;2.35;;
48191;SDS011;33982;47.430;18.912;2022-08-03T23:19:11;3.67;;;2.17;;
48191;SDS011;33982;47.430;18.912;2022-08-03T23:21:55;4.40;;;2.40;;
48191;SDS011;33982;47.430;18.912;2022-08-03T23:24:32;3.72;;;2.40;;
48191;SDS011;33982;47.430;18.912;2022-08-03T23:27:03;4.28;;;2.33;;
48191;SDS011;33982;47.430;18.912;2022-08-03T23:29:35;3.63;;;2.30;;
48191;SDS011;33982;47.430;18.912;2022-08-03T23:32:04;4.43;;;2.50;;
48191;SDS011;33982;47.430;18.912;2022-08-03T23:34:32;3.85;;;2.50;;
48191;SDS011;33982;47.430;18.912;2022-08-03T23:37:19;4.30;;;2.30;;
48191;SDS011;33982;47.430;18.912;2022-08-03T23:39:47;4.93;;;2.37;;
48191;SDS011;33982;47.430;18.912;2022-08-03T23:42:16;4.10;;;2.30;;
48191;SDS011;33982;47.430;18.912;2022-08-03T23:44:44;4.28;;;2.30;;
48191;SDS011;33982;47.430;18.912;2022-08-03T23:47:12;4.12;;;2.47;;
48191;SDS011;33982;47.430;18.912;2022-08-03T23:49:40;3.78;;;2.30;;
48191;SDS011;33982;47.430;18.912;2022-08-03T23:52:09;4.25;;;2.40;;
48191;SDS011;33982;47.430;18.912;2022-08-03T23:54:45;4.53;;;2.35;;
